createdAt,value
2022-12-19T00:01:20.439Z,0.28
2022-12-19T00:03:50.690Z,0.32
2022-12-19T00:06:22.347Z,0.31
2022-12-19T00:08:51.488Z,0.38
2022-12-19T00:11:21.877Z,0.40
2022-12-19T00:13:49.940Z,0.42
2022-12-19T00:16:23.303Z,0.44
2022-12-19T00:18:55.355Z,0.48
2022-12-19T00:21:26.304Z,0.52
2022-12-19T00:23:54.928Z,0.58
2022-12-19T00:26:28.277Z,0.59
2022-12-19T00:28:58.653Z,0.58
2022-12-19T00:31:28.904Z,0.61
2022-12-19T00:33:57.389Z,0.63
2022-12-19T00:36:28.467Z,0.65
2022-12-19T00:38:59.137Z,0.68
2022-12-19T00:41:32.835Z,0.73
2022-12-19T00:44:03.886Z,0.73
2022-12-19T00:46:33.907Z,0.77
2022-12-19T00:49:02.339Z,0.76
2022-12-19T00:51:34.303Z,0.76
2022-12-19T00:54:03.127Z,0.70
2022-12-19T00:56:37.212Z,0.73
2022-12-19T00:59:09.193Z,0.70
2022-12-19T01:01:40.373Z,0.72
2022-12-19T01:04:28.320Z,0.72
2022-12-19T01:06:57.906Z,0.70
2022-12-19T01:09:35.908Z,0.75
2022-12-19T01:12:24.846Z,0.72
2022-12-19T01:15:02.898Z,0.72
2022-12-19T01:17:37.752Z,0.75
2022-12-19T01:20:15.061Z,0.77
2022-12-19T01:22:43.354Z,0.75
2022-12-19T01:25:14.648Z,0.79
2022-12-19T01:27:42.576Z,0.80
2022-12-19T01:30:11.445Z,0.79
2022-12-19T01:32:40.191Z,0.80
2022-12-19T01:35:09.935Z,0.81
2022-12-19T01:37:48.948Z,0.87
2022-12-19T01:40:18.175Z,0.94
2022-12-19T01:42:46.148Z,0.97
2022-12-19T01:45:17.093Z,0.97
2022-12-19T01:48:11.880Z,1.07
2022-12-19T01:50:58.825Z,1.04
2022-12-19T01:54:01.490Z,1.13
2022-12-19T01:56:35.968Z,1.14
2022-12-19T01:59:10.191Z,1.21
2022-12-19T02:01:51.496Z,1.25
2022-12-19T02:04:26.342Z,1.23
2022-12-19T02:06:59.762Z,1.24
2022-12-19T02:09:34.891Z,1.27
2022-12-19T02:15:02.489Z,1.31
2022-12-19T02:17:42.163Z,1.35
2022-12-19T02:20:35.024Z,1.38
2022-12-19T02:23:38.520Z,1.42
2022-12-19T02:26:25.944Z,1.46
2022-12-19T02:29:18.753Z,1.48
2022-12-19T02:32:15.991Z,1.53
2022-12-19T02:34:58.454Z,1.56
2022-12-19T02:37:28.800Z,1.58
2022-12-19T02:40:06.693Z,1.64
2022-12-19T02:42:39.476Z,1.69
2022-12-19T02:45:10.216Z,1.70
2022-12-19T02:47:39.342Z,1.79
2022-12-19T02:50:08.606Z,1.80
2022-12-19T02:52:36.594Z,1.84
2022-12-19T02:55:09.420Z,1.84
2022-12-19T02:57:55.639Z,1.90
2022-12-19T03:00:27.522Z,1.86
2022-12-19T03:03:22.837Z,1.90
2022-12-19T03:06:05.843Z,1.90
2022-12-19T03:09:11.850Z,1.87
2022-12-19T03:11:41.996Z,1.90
2022-12-19T03:14:14.168Z,1.91
2022-12-19T03:16:42.553Z,1.90
2022-12-19T03:19:13.303Z,1.98
2022-12-19T03:21:46.009Z,1.97
2022-12-19T03:24:14.914Z,1.98
2022-12-19T03:26:46.495Z,2.01
2022-12-19T03:29:25.158Z,2.04
2022-12-19T03:31:54.287Z,2.11
2022-12-19T03:34:26.611Z,2.07
2022-12-19T03:36:59.837Z,2.10
2022-12-19T03:39:28.701Z,2.17
2022-12-19T03:42:17.674Z,2.22
2022-12-19T03:44:45.516Z,2.24
2022-12-19T03:47:33.592Z,2.31
2022-12-19T03:50:01.484Z,2.38
2022-12-19T03:52:40.269Z,2.39
2022-12-19T03:55:39.068Z,2.44
2022-12-19T03:58:12.377Z,2.45
2022-12-19T04:00:47.310Z,2.48
2022-12-19T04:03:18.376Z,2.52
2022-12-19T04:05:48.486Z,2.55
2022-12-19T04:08:17.179Z,2.57
2022-12-19T04:10:51.134Z,2.59
2022-12-19T04:13:35.415Z,2.64
2022-12-19T04:16:28.384Z,2.70
2022-12-19T04:19:05.497Z,2.72
2022-12-19T04:21:43.882Z,2.79
2022-12-19T04:24:18.827Z,2.80
2022-12-19T04:26:49.424Z,2.81
2022-12-19T04:29:18.424Z,2.83
2022-12-19T04:31:46.854Z,2.86
2022-12-19T04:34:18.719Z,2.87
2022-12-19T04:36:47.103Z,2.89
2022-12-19T04:39:15.073Z,2.91
2022-12-19T04:41:42.860Z,2.93
2022-12-19T04:44:10.667Z,2.98
2022-12-19T04:46:38.739Z,2.98
2022-12-19T04:49:06.589Z,2.98
2022-12-19T04:51:34.419Z,3.00
2022-12-19T04:54:02.201Z,3.03
2022-12-19T04:56:30.069Z,3.03
2022-12-19T04:58:59.296Z,3.11
2022-12-19T05:01:27.587Z,3.14
2022-12-19T05:03:59.915Z,3.19
2022-12-19T05:06:30.758Z,3.29
2022-12-19T05:08:58.637Z,3.29
2022-12-19T05:11:26.448Z,3.34
2022-12-19T05:13:54.298Z,3.39
2022-12-19T05:16:22.387Z,3.40
2022-12-19T05:18:50.376Z,3.48
2022-12-19T05:21:18.216Z,3.51
2022-12-19T05:23:46.133Z,3.55
2022-12-19T05:26:13.927Z,3.60
2022-12-19T05:28:41.799Z,3.67
2022-12-19T05:31:11.106Z,3.69
2022-12-19T05:33:40.554Z,3.73
2022-12-19T05:36:09.767Z,3.80
2022-12-19T05:38:37.510Z,3.91
2022-12-19T05:41:14.073Z,3.98
2022-12-19T05:43:42.529Z,4.08
2022-12-19T05:46:10.746Z,4.09
2022-12-19T05:48:39.178Z,4.08
2022-12-19T05:51:07.422Z,4.11
2022-12-19T05:53:39.344Z,4.15
2022-12-19T05:56:18.482Z,4.25
2022-12-19T05:58:47.516Z,4.24
2022-12-19T06:01:26.515Z,4.25
2022-12-19T06:03:55.551Z,4.32
2022-12-19T06:06:26.114Z,4.32
2022-12-19T06:08:58.455Z,4.36
2022-12-19T06:11:27.270Z,4.39
2022-12-19T06:13:55.124Z,4.44
2022-12-19T06:16:23.720Z,4.39
2022-12-19T06:18:51.858Z,4.38
2022-12-19T06:21:22.416Z,4.50
2022-12-19T06:23:50.565Z,4.55
2022-12-19T06:26:21.008Z,4.52
2022-12-19T06:28:50.543Z,4.56
2022-12-19T06:31:19.895Z,4.57
2022-12-19T06:33:48.313Z,4.63
2022-12-19T06:36:23.863Z,4.67
2022-12-19T06:38:52.116Z,4.70
2022-12-19T06:41:39.316Z,4.74
2022-12-19T06:44:10.451Z,4.84
2022-12-19T06:46:40.198Z,4.92
2022-12-19T06:49:09.168Z,4.95
2022-12-19T06:51:37.362Z,5.01
2022-12-19T06:54:05.408Z,5.07
2022-12-19T06:56:37.654Z,5.11
2022-12-19T06:59:06.543Z,5.18
2022-12-19T07:01:40.503Z,5.18
2022-12-19T07:04:11.532Z,5.24
2022-12-19T07:06:40.209Z,5.29
2022-12-19T07:09:10.288Z,5.27
2022-12-19T07:11:39.380Z,5.32
2022-12-19T07:14:07.297Z,5.34
2022-12-19T07:16:38.435Z,5.46
2022-12-19T07:19:08.797Z,5.47
2022-12-19T07:21:37.377Z,5.50
2022-12-19T07:24:06.069Z,5.49
2022-12-19T07:26:34.044Z,5.53
2022-12-19T07:29:01.956Z,5.56
2022-12-19T07:31:29.872Z,5.64
2022-12-19T07:33:58.024Z,5.70
2022-12-19T07:36:26.108Z,5.69
2022-12-19T07:38:54.043Z,5.69
2022-12-19T07:41:21.908Z,5.84
2022-12-19T07:43:49.771Z,5.83
2022-12-19T07:46:17.576Z,5.94
2022-12-19T07:48:45.464Z,6.08
2022-12-19T07:51:13.373Z,6.15
2022-12-19T07:53:41.207Z,6.26
2022-12-19T07:56:09.255Z,6.35
2022-12-19T07:58:37.760Z,6.45
2022-12-19T08:01:06.465Z,6.56
2022-12-19T08:03:36.020Z,6.58
2022-12-19T08:06:06.106Z,6.69
2022-12-19T08:08:34.525Z,6.76
2022-12-19T08:11:19.585Z,6.85
2022-12-19T08:13:49.918Z,6.88
2022-12-19T08:16:17.908Z,6.90
2022-12-19T08:18:46.175Z,6.88
2022-12-19T08:21:14.556Z,6.95
2022-12-19T08:23:42.566Z,7.00
2022-12-19T08:26:13.688Z,7.05
2022-12-19T08:28:41.958Z,7.15
2022-12-19T08:31:15.560Z,7.15
2022-12-19T08:33:43.982Z,7.19
2022-12-19T08:36:14.718Z,7.18
2022-12-19T08:38:42.767Z,7.19
2022-12-19T08:41:11.620Z,7.22
2022-12-19T08:43:39.541Z,7.22
2022-12-19T08:46:08.121Z,7.26
2022-12-19T08:48:36.652Z,7.32
2022-12-19T08:51:07.139Z,7.35
2022-12-19T08:53:37.094Z,7.39
2022-12-19T08:56:19.257Z,7.40
2022-12-19T08:58:47.404Z,7.52
2022-12-19T09:01:19.209Z,7.47
2022-12-19T09:05:07.764Z,7.53
2022-12-19T09:06:36.579Z,7.52
2022-12-19T09:09:05.870Z,7.53
2022-12-19T09:11:35.916Z,7.59
2022-12-19T09:14:16.376Z,7.63
2022-12-19T09:16:49.581Z,7.60
2022-12-19T09:19:18.157Z,7.64
2022-12-19T09:21:46.151Z,7.60
2022-12-19T09:24:14.568Z,7.62
2022-12-19T09:26:43.835Z,7.66
2022-12-19T09:29:19.610Z,7.60
2022-12-19T09:31:55.244Z,7.66
2022-12-19T09:34:38.177Z,7.67
2022-12-19T09:37:08.385Z,7.66
2022-12-19T09:39:36.664Z,7.63
2022-12-19T09:42:39.432Z,7.66
2022-12-19T09:45:31.665Z,7.66
2022-12-19T09:48:02.482Z,7.71
2022-12-19T09:50:46.671Z,7.67
2022-12-19T09:53:31.470Z,7.67
2022-12-19T09:56:00.696Z,7.70
2022-12-19T09:58:54.182Z,7.73
2022-12-19T10:01:39.811Z,7.67
2022-12-19T10:04:13.885Z,7.69
2022-12-19T10:07:21.337Z,7.73
2022-12-19T10:12:12.726Z,7.78
2022-12-19T10:12:49.921Z,7.81
2022-12-19T10:15:41.229Z,7.84
2022-12-19T10:18:29.562Z,7.91
2022-12-19T10:21:36.985Z,7.94
2022-12-19T10:24:35.388Z,7.92
2022-12-19T10:27:37.298Z,7.94
2022-12-19T10:30:23.897Z,7.90
2022-12-19T10:32:57.817Z,7.91
2022-12-19T10:35:32.433Z,7.92
2022-12-19T10:38:06.790Z,7.92
2022-12-19T10:40:47.737Z,7.94
2022-12-19T10:43:34.692Z,7.95
2022-12-19T10:46:38.046Z,7.98
2022-12-19T10:49:25.265Z,8.04
2022-12-19T10:51:56.259Z,8.05
2022-12-19T10:54:39.698Z,8.04
2022-12-19T10:57:23.307Z,8.11
2022-12-19T11:00:05.209Z,8.16
2022-12-19T11:02:39.484Z,8.16
2022-12-19T11:05:23.622Z,8.22
2022-12-19T11:08:25.230Z,8.19
2022-12-19T11:12:22.785Z,8.22
2022-12-19T11:19:13.530Z,8.29
2022-12-19T11:25:38.200Z,8.33
2022-12-19T11:29:17.342Z,8.40
2022-12-19T11:29:37.372Z,8.45
2022-12-19T11:29:54.950Z,8.47
2022-12-19T11:30:36.679Z,8.49
2022-12-19T11:34:35.674Z,8.49
2022-12-19T11:37:28.916Z,8.52
2022-12-19T11:40:10.209Z,8.52
2022-12-19T11:43:41.788Z,8.56
2022-12-19T11:45:56.934Z,8.61
2022-12-19T11:48:50.460Z,8.57
2022-12-19T11:51:25.401Z,8.57
2022-12-19T11:54:12.081Z,8.56
2022-12-19T11:56:39.881Z,8.52
2022-12-19T11:59:19.232Z,8.49
2022-12-19T12:01:53.515Z,8.53
2022-12-19T12:04:30.720Z,8.56
2022-12-19T12:07:01.633Z,8.57
2022-12-19T12:12:10.484Z,8.57
2022-12-19T12:16:27.052Z,8.64
2022-12-19T12:26:11.543Z,8.61
2022-12-19T12:31:07.544Z,8.64
2022-12-19T12:31:15.525Z,8.64
2022-12-19T12:31:45.128Z,8.68
2022-12-19T12:32:06.163Z,8.67
2022-12-19T12:35:29.285Z,8.80
2022-12-19T12:35:40.507Z,8.73
2022-12-19T12:41:07.051Z,8.91
2022-12-19T12:44:09.241Z,8.95
2022-12-19T12:46:44.599Z,8.92
2022-12-19T12:49:24.829Z,8.94
2022-12-19T12:51:53.280Z,8.92
2022-12-19T12:54:23.737Z,8.95
2022-12-19T12:56:51.679Z,9.00
2022-12-19T12:59:24.299Z,9.08
2022-12-19T13:02:01.717Z,9.10
2022-12-19T13:04:37.074Z,9.10
2022-12-19T13:07:15.539Z,9.14
2022-12-19T13:09:44.075Z,9.14
2022-12-19T13:12:47.085Z,9.23
2022-12-19T13:15:32.059Z,9.26
2022-12-19T13:18:33.205Z,9.26
2022-12-19T13:21:03.806Z,9.32
2022-12-19T13:23:47.688Z,9.35
2022-12-19T13:26:44.779Z,9.32
2022-12-19T13:29:29.421Z,9.32
2022-12-19T13:32:12.599Z,9.36
2022-12-19T13:34:44.042Z,9.42
2022-12-19T13:39:54.016Z,9.46
2022-12-19T13:40:33.103Z,9.46
2022-12-19T13:43:29.604Z,9.53
2022-12-19T13:46:20.254Z,9.50
2022-12-19T13:48:52.307Z,9.54
2022-12-19T13:51:21.717Z,9.53
2022-12-19T13:53:59.526Z,9.51
2022-12-19T13:56:31.817Z,9.50
2022-12-19T13:59:04.760Z,9.51
2022-12-19T14:01:35.846Z,9.53
2022-12-19T14:04:13.437Z,9.53
2022-12-19T14:06:46.352Z,9.51
2022-12-19T14:11:27.428Z,9.54
2022-12-19T14:13:55.314Z,9.54
2022-12-19T14:15:33.959Z,9.56
2022-12-19T14:18:41.811Z,9.51
2022-12-19T14:22:07.802Z,9.53
2022-12-19T14:24:18.299Z,9.49
2022-12-19T14:28:23.522Z,9.44
2022-12-19T14:30:27.276Z,9.44
2022-12-19T14:33:40.606Z,9.49
2022-12-19T14:36:10.320Z,9.46
2022-12-19T14:39:19.822Z,9.42
2022-12-19T14:41:46.340Z,9.39
2022-12-19T14:51:25.249Z,9.28
2022-12-19T14:54:06.106Z,9.28
2022-12-19T14:54:08.899Z,9.28
2022-12-19T14:54:46.701Z,9.25
2022-12-19T14:56:58.309Z,9.16
2022-12-19T14:59:17.316Z,9.12
2022-12-19T15:01:52.987Z,9.11
2022-12-19T15:04:52.103Z,9.12
2022-12-19T15:07:23.710Z,9.12
2022-12-19T15:11:07.285Z,9.15
2022-12-19T15:14:47.900Z,9.12
2022-12-19T15:16:04.467Z,9.12
2022-12-19T15:18:42.690Z,9.12
2022-12-19T15:21:14.725Z,9.11
2022-12-19T15:23:45.360Z,9.11
2022-12-19T15:26:20.445Z,9.08
2022-12-19T15:28:53.481Z,9.08
2022-12-19T15:31:38.982Z,9.10
2022-12-19T15:34:35.776Z,9.07
2022-12-19T15:37:06.243Z,9.12
2022-12-19T15:39:34.201Z,9.10
2022-12-19T15:42:02.583Z,9.14
2022-12-19T15:44:36.768Z,9.16
2022-12-19T15:47:14.882Z,9.22
2022-12-19T15:49:42.892Z,9.23
2022-12-19T15:52:21.315Z,9.28
2022-12-19T15:54:51.797Z,9.29
2022-12-19T15:57:32.469Z,9.32
2022-12-19T16:00:04.951Z,9.33
2022-12-19T16:05:24.309Z,9.36
2022-12-19T16:07:52.489Z,9.42
2022-12-19T16:10:20.540Z,9.47
2022-12-19T16:12:57.785Z,9.46
2022-12-19T16:15:32.010Z,9.44
2022-12-19T16:18:02.939Z,9.43
2022-12-19T16:20:37.920Z,9.50
2022-12-19T16:23:06.367Z,9.50
2022-12-19T16:25:40.397Z,9.46
2022-12-19T16:28:18.439Z,9.46
2022-12-19T16:30:47.369Z,9.53
2022-12-19T16:33:21.656Z,9.46
2022-12-19T16:36:07.591Z,9.46
2022-12-19T16:38:36.688Z,9.39
2022-12-19T16:41:04.638Z,9.35
2022-12-19T16:43:42.693Z,9.32
2022-12-19T16:46:18.167Z,9.16
2022-12-19T16:48:47.532Z,9.01
2022-12-19T16:51:21.039Z,8.83
2022-12-19T16:53:50.652Z,8.67
2022-12-19T16:56:27.274Z,8.53
2022-12-19T16:58:56.430Z,8.39
2022-12-19T17:01:24.346Z,8.29
2022-12-19T17:03:55.040Z,8.28
2022-12-19T17:06:23.715Z,8.24
2022-12-19T17:08:52.500Z,8.28
2022-12-19T17:11:25.271Z,8.28
2022-12-19T17:14:01.762Z,8.24
2022-12-19T17:16:31.095Z,8.18
2022-12-19T17:19:00.432Z,8.16
2022-12-19T17:21:28.517Z,8.16
2022-12-19T17:23:56.433Z,8.18
2022-12-19T17:26:24.517Z,8.13
2022-12-19T17:28:52.312Z,8.13
2022-12-19T17:31:27.609Z,8.08
2022-12-19T17:33:57.839Z,8.11
2022-12-19T17:36:36.941Z,8.09
2022-12-19T17:39:27.054Z,8.09
2022-12-19T17:42:09.943Z,8.11
2022-12-19T17:44:38.106Z,8.15
2022-12-19T17:47:06.098Z,8.19
2022-12-19T17:49:35.417Z,8.24
2022-12-19T17:52:03.263Z,8.26
2022-12-19T17:54:32.557Z,8.29
2022-12-19T17:57:00.373Z,8.35
2022-12-19T17:59:28.679Z,8.40
2022-12-19T18:01:56.928Z,8.43
2022-12-19T18:04:26.114Z,8.47
2022-12-19T18:06:54.240Z,8.49
2022-12-19T18:09:24.810Z,8.45
2022-12-19T18:11:53.227Z,8.45
2022-12-19T18:14:21.417Z,8.42
2022-12-19T18:16:51.300Z,8.38
2022-12-19T18:19:21.912Z,8.43
2022-12-19T18:21:50.345Z,8.42
2022-12-19T18:24:18.331Z,8.46
2022-12-19T18:26:46.789Z,8.49
2022-12-19T18:29:15.285Z,8.52
2022-12-19T18:31:50.084Z,8.52
2022-12-19T18:34:26.471Z,8.57
2022-12-19T18:36:54.529Z,8.57
2022-12-19T18:39:23.428Z,8.63
2022-12-19T18:41:53.234Z,8.63
2022-12-19T18:44:23.037Z,8.68
2022-12-19T18:46:51.794Z,8.67
2022-12-19T18:49:20.125Z,8.66
2022-12-19T18:51:48.332Z,8.68
2022-12-19T18:54:22.255Z,8.74
2022-12-19T18:56:52.789Z,8.70
2022-12-19T18:59:23.992Z,8.73
2022-12-19T19:01:52.352Z,8.74
2022-12-19T19:04:22.163Z,8.77
2022-12-19T19:06:52.817Z,8.80
2022-12-19T19:09:21.932Z,8.84
2022-12-19T19:12:19.389Z,8.83
2022-12-19T19:14:47.350Z,8.83
2022-12-19T19:17:27.477Z,8.81
2022-12-19T19:19:55.887Z,8.81
2022-12-19T19:22:24.981Z,8.81
2022-12-19T19:24:52.829Z,8.85
2022-12-19T19:27:20.746Z,8.83
2022-12-19T19:29:48.641Z,8.84
2022-12-19T19:32:17.094Z,8.81
2022-12-19T19:34:45.621Z,8.81
2022-12-19T19:37:15.289Z,8.77
2022-12-19T19:39:43.397Z,8.77
2022-12-19T19:42:12.134Z,8.81
2022-12-19T19:44:40.252Z,8.91
2022-12-19T19:47:08.868Z,9.16
2022-12-19T19:49:36.810Z,9.23
2022-12-19T19:52:04.931Z,9.33
2022-12-19T19:54:34.721Z,9.33
2022-12-19T19:57:02.897Z,9.38
2022-12-19T19:59:33.801Z,9.56
2022-12-19T20:02:01.797Z,9.56
2022-12-19T20:04:29.926Z,9.67
2022-12-19T20:06:57.909Z,9.67
2022-12-19T20:09:26.300Z,9.66
2022-12-19T20:11:54.095Z,9.80
2022-12-19T20:14:22.518Z,9.90
2022-12-19T20:16:50.705Z,9.98
2022-12-19T20:19:18.783Z,10.08
2022-12-19T20:21:48.516Z,10.05
2022-12-19T20:24:16.561Z,9.95
2022-12-19T20:26:44.639Z,9.93
2022-12-19T20:29:13.968Z,9.85
2022-12-19T20:31:42.692Z,9.85
2022-12-19T20:34:10.926Z,9.87
2022-12-19T20:36:39.482Z,9.85
2022-12-19T20:39:09.341Z,9.90
2022-12-19T20:41:37.438Z,10.01
2022-12-19T20:44:05.531Z,10.11
2022-12-19T20:46:33.546Z,10.13
2022-12-19T20:49:01.380Z,10.13
2022-12-19T20:51:29.247Z,10.18
2022-12-19T20:53:57.086Z,10.19
2022-12-19T20:56:26.024Z,10.22
2022-12-19T20:58:54.341Z,10.26
2022-12-19T21:01:24.453Z,10.28
2022-12-19T21:03:53.267Z,10.28
2022-12-19T21:06:25.357Z,10.28
2022-12-19T21:08:54.845Z,10.33
2022-12-19T21:11:23.851Z,10.25
2022-12-19T21:13:52.067Z,10.12
2022-12-19T21:16:29.295Z,10.02
2022-12-19T21:18:59.840Z,9.95
2022-12-19T21:21:28.188Z,9.94
2022-12-19T21:23:56.489Z,9.99
2022-12-19T21:26:26.171Z,9.94
2022-12-19T21:28:54.691Z,9.88
2022-12-19T21:31:28.283Z,9.91
2022-12-19T21:33:58.655Z,9.94
2022-12-19T21:36:28.918Z,10.02
2022-12-19T21:38:58.958Z,10.05
2022-12-19T21:41:28.031Z,10.13
2022-12-19T21:43:56.697Z,10.09
2022-12-19T21:46:27.748Z,10.09
2022-12-19T21:48:57.099Z,10.15
2022-12-19T21:51:28.123Z,10.18
2022-12-19T21:54:00.302Z,10.28
2022-12-19T21:56:39.547Z,10.30
2022-12-19T21:59:17.626Z,10.36
2022-12-19T22:01:45.898Z,10.42
2022-12-19T22:04:17.931Z,10.46
2022-12-19T22:06:46.184Z,10.49
2022-12-19T22:09:17.442Z,10.53
2022-12-19T22:11:46.141Z,10.52
2022-12-19T22:14:15.418Z,10.59
2022-12-19T22:16:44.207Z,10.66
2022-12-19T22:19:15.612Z,10.74
2022-12-19T22:21:45.971Z,10.75
2022-12-19T22:24:19.969Z,10.77
2022-12-19T22:26:51.646Z,10.87
2022-12-19T22:29:19.799Z,10.83
2022-12-19T22:31:48.279Z,10.84
2022-12-19T22:34:19.566Z,10.83
2022-12-19T22:36:48.750Z,10.84
2022-12-19T22:39:21.416Z,10.80
2022-12-19T22:41:49.687Z,10.74
2022-12-19T22:44:20.492Z,10.77
2022-12-19T22:46:49.557Z,10.70
2022-12-19T22:49:17.721Z,10.73
2022-12-19T22:51:45.646Z,10.77
2022-12-19T22:54:14.499Z,10.73
2022-12-19T22:56:42.417Z,10.66
2022-12-19T22:59:12.173Z,10.57
2022-12-19T23:01:42.154Z,10.64
2022-12-19T23:04:13.619Z,10.61
2022-12-19T23:06:41.798Z,10.60
2022-12-19T23:09:12.553Z,10.61
2022-12-19T23:11:42.674Z,10.66
2022-12-19T23:14:14.802Z,10.59
2022-12-19T23:16:43.992Z,10.55
2022-12-19T23:19:13.811Z,10.52
2022-12-19T23:21:41.674Z,10.47
2022-12-19T23:24:09.588Z,10.38
2022-12-19T23:26:38.088Z,10.30
2022-12-19T23:29:09.315Z,10.28
2022-12-19T23:31:41.041Z,10.18
2022-12-19T23:34:10.562Z,10.15
2022-12-19T23:39:26.358Z,10.16
2022-12-19T23:41:54.161Z,10.18
2022-12-19T23:44:22.219Z,10.11
2022-12-19T23:46:50.132Z,10.04
2022-12-19T23:49:17.911Z,10.08
2022-12-19T23:51:45.701Z,10.19
2022-12-19T23:54:13.499Z,10.19
2022-12-19T23:56:41.421Z,10.15
2022-12-19T23:59:09.289Z,10.13
